sensor_id;sensor_type;location;lat;lon;timestamp;pressure;altitude;pressure_sealevel;temperature;humidity
76106;BME280;64832;45.274;5.880;2022-11-10T00:00:44;99394.69;;;18.80;59.83
76106;BME280;64832;45.274;5.880;2022-11-10T00:03:10;99389.28;;;18.80;59.90
76106;BME280;64832;45.274;5.880;2022-11-10T00:05:37;99394.44;;;18.81;59.90
76106;BME280;64832;45.274;5.880;2022-11-10T00:08:07;99389.03;;;18.81;60.02
76106;BME280;64832;45.274;5.880;2022-11-10T00:10:35;99387.59;;;18.78;59.90
76106;BME280;64832;45.274;5.880;2022-11-10T00:13:24;99386.56;;;18.80;60.13
76106;BME280;64832;45.274;5.880;2022-11-10T00:15:50;99387.59;;;18.78;60.25
76106;BME280;64832;45.274;5.880;2022-11-10T00:18:34;99393.03;;;18.78;60.15
76106;BME280;64832;45.274;5.880;2022-11-10T00:21:05;99391.75;;;18.81;59.99
76106;BME280;64832;45.274;5.880;2022-11-10T00:23:32;99392.19;;;18.78;59.73
76106;BME280;64832;45.274;5.880;2022-11-10T00:25:57;99396.34;;;18.81;60.35
76106;BME280;64832;45.274;5.880;2022-11-10T00:28:23;99387.38;;;18.80;60.08
76106;BME280;64832;45.274;5.880;2022-11-10T00:30:48;99400.09;;;18.80;60.16
76106;BME280;64832;45.274;5.880;2022-11-10T00:33:14;99397.41;;;18.80;60.21
76106;BME280;64832;45.274;5.880;2022-11-10T00:35:39;99404.50;;;18.81;60.44
76106;BME280;64832;45.274;5.880;2022-11-10T00:38:04;99412.63;;;18.81;60.28
76106;BME280;64832;45.274;5.880;2022-11-10T00:40:30;99411.16;;;18.78;60.06
76106;BME280;64832;45.274;5.880;2022-11-10T00:42:55;99407.41;;;18.79;60.06
76106;BME280;64832;45.274;5.880;2022-11-10T00:45:20;99408.69;;;18.76;60.04
76106;BME280;64832;45.274;5.880;2022-11-10T00:47:46;99409.28;;;18.78;60.29
76106;BME280;64832;45.274;5.880;2022-11-10T00:50:11;99419.09;;;18.80;60.38
76106;BME280;64832;45.274;5.880;2022-11-10T00:52:37;99410.13;;;18.79;60.31
76106;BME280;64832;45.274;5.880;2022-11-10T00:55:02;99412.00;;;18.78;60.29
76106;BME280;64832;45.274;5.880;2022-11-10T00:57:28;99413.88;;;18.78;60.23
76106;BME280;64832;45.274;5.880;2022-11-10T00:59:53;99415.78;;;18.77;60.23
76106;BME280;64832;45.274;5.880;2022-11-10T01:02:19;99416.00;;;18.76;60.20
76106;BME280;64832;45.274;5.880;2022-11-10T01:04:44;99407.66;;;18.77;59.92
76106;BME280;64832;45.274;5.880;2022-11-10T01:07:09;99407.03;;;18.75;60.39
76106;BME280;64832;45.274;5.880;2022-11-10T01:09:35;99418.69;;;18.76;60.23
76106;BME280;64832;45.274;5.880;2022-11-10T01:12:00;99422.25;;;18.76;60.23
76106;BME280;64832;45.274;5.880;2022-11-10T01:14:25;99433.31;;;18.75;60.22
76106;BME280;64832;45.274;5.880;2022-11-10T01:16:51;99436.63;;;18.77;60.19
76106;BME280;64832;45.274;5.880;2022-11-10T01:19:16;99452.88;;;18.77;60.40
76106;BME280;64832;45.274;5.880;2022-11-10T01:21:42;99445.81;;;18.76;60.29
76106;BME280;64832;45.274;5.880;2022-11-10T01:24:07;99446.63;;;18.76;60.22
76106;BME280;64832;45.274;5.880;2022-11-10T01:26:32;99444.16;;;18.75;60.33
76106;BME280;64832;45.274;5.880;2022-11-10T01:28:58;99444.38;;;18.73;60.16
76106;BME280;64832;45.274;5.880;2022-11-10T01:31:24;99448.75;;;18.74;60.35
76106;BME280;64832;45.274;5.880;2022-11-10T01:33:49;99451.47;;;18.74;60.47
76106;BME280;64832;45.274;5.880;2022-11-10T01:36:14;99445.41;;;18.72;60.57
76106;BME280;64832;45.274;5.880;2022-11-10T01:38:41;99442.69;;;18.72;60.34
76106;BME280;64832;45.274;5.880;2022-11-10T01:41:09;99444.97;;;18.75;60.47
76106;BME280;64832;45.274;5.880;2022-11-10T01:43:36;99447.91;;;18.74;60.40
76106;BME280;64832;45.274;5.880;2022-11-10T01:46:04;99452.28;;;18.75;60.23
76106;BME280;64832;45.274;5.880;2022-11-10T01:51:08;99463.13;;;18.75;60.38
76106;BME280;64832;45.274;5.880;2022-11-10T01:53:37;99467.72;;;18.74;60.38
76106;BME280;64832;45.274;5.880;2022-11-10T01:56:05;99455.22;;;18.73;60.31
76106;BME280;64832;45.274;5.880;2022-11-10T01:58:36;99459.59;;;18.74;60.27
76106;BME280;64832;45.274;5.880;2022-11-10T02:01:05;99463.34;;;18.73;60.57
76106;BME280;64832;45.274;5.880;2022-11-10T02:03:38;99458.97;;;18.72;60.32
76106;BME280;64832;45.274;5.880;2022-11-10T02:06:06;99460.88;;;18.72;60.40
76106;BME280;64832;45.274;5.880;2022-11-10T02:08:32;99462.50;;;18.73;60.50
76106;BME280;64832;45.274;5.880;2022-11-10T02:10:58;99461.66;;;18.72;60.48
76106;BME280;64832;45.274;5.880;2022-11-10T02:13:24;99457.91;;;18.73;60.52
76106;BME280;64832;45.274;5.880;2022-11-10T02:15:49;99454.38;;;18.73;60.30
76106;BME280;64832;45.274;5.880;2022-11-10T02:18:15;99461.66;;;18.72;60.57
76106;BME280;64832;45.274;5.880;2022-11-10T02:20:44;99455.44;;;18.72;60.32
76106;BME280;64832;45.274;5.880;2022-11-10T02:23:11;99462.75;;;18.71;60.33
76106;BME280;64832;45.274;5.880;2022-11-10T02:25:37;99465.22;;;18.73;60.71
76106;BME280;64832;45.274;5.880;2022-11-10T02:28:02;99457.53;;;18.70;60.52
76106;BME280;64832;45.274;5.880;2022-11-10T02:30:28;99467.09;;;18.72;60.75
76106;BME280;64832;45.274;5.880;2022-11-10T02:32:53;99474.41;;;18.72;60.74
76106;BME280;64832;45.274;5.880;2022-11-10T02:35:19;99477.13;;;18.72;60.61
76106;BME280;64832;45.274;5.880;2022-11-10T02:37:44;99478.78;;;18.73;60.81
76106;BME280;64832;45.274;5.880;2022-11-10T02:40:10;99484.44;;;18.71;60.25
76106;BME280;64832;45.274;5.880;2022-11-10T02:42:35;99476.31;;;18.71;60.63
76106;BME280;64832;45.274;5.880;2022-11-10T02:45:00;99486.31;;;18.71;60.70
76106;BME280;64832;45.274;5.880;2022-11-10T02:47:26;99486.53;;;18.69;60.59
76106;BME280;64832;45.274;5.880;2022-11-10T02:49:51;99488.41;;;18.69;60.77
76106;BME280;64832;45.274;5.880;2022-11-10T02:52:17;99498.19;;;18.70;60.50
76106;BME280;64832;45.274;5.880;2022-11-10T02:54:42;99494.44;;;18.71;61.01
76106;BME280;64832;45.274;5.880;2022-11-10T02:57:07;99494.44;;;18.71;60.69
76106;BME280;64832;45.274;5.880;2022-11-10T02:59:33;99478.69;;;18.61;60.62
76106;BME280;64832;45.274;5.880;2022-11-10T03:01:58;99505.28;;;18.71;60.78
76106;BME280;64832;45.274;5.880;2022-11-10T03:04:23;99502.81;;;18.69;60.53
76106;BME280;64832;45.274;5.880;2022-11-10T03:06:49;99498.44;;;18.68;60.82
76106;BME280;64832;45.274;5.880;2022-11-10T03:09:14;99501.13;;;18.68;60.73
76106;BME280;64832;45.274;5.880;2022-11-10T03:11:40;99497.38;;;18.69;60.98
76106;BME280;64832;45.274;5.880;2022-11-10T03:14:05;99506.31;;;18.70;60.94
76106;BME280;64832;45.274;5.880;2022-11-10T03:16:31;99502.81;;;18.69;60.86
76106;BME280;64832;45.274;5.880;2022-11-10T03:18:56;99506.31;;;18.70;60.86
76106;BME280;64832;45.274;5.880;2022-11-10T03:21:21;99509.03;;;18.70;60.95
76106;BME280;64832;45.274;5.880;2022-11-10T03:23:47;99500.00;;;18.58;60.92
76106;BME280;64832;45.274;5.880;2022-11-10T03:26:12;99510.94;;;18.69;60.91
76106;BME280;64832;45.274;5.880;2022-11-10T03:28:38;99511.75;;;18.70;61.00
76106;BME280;64832;45.274;5.880;2022-11-10T03:31:03;99516.34;;;18.69;60.73
76106;BME280;64832;45.274;5.880;2022-11-10T03:33:29;99511.97;;;18.68;60.94
76106;BME280;64832;45.274;5.880;2022-11-10T03:35:54;99520.94;;;18.69;61.10
76106;BME280;64832;45.274;5.880;2022-11-10T03:38:20;99518.00;;;18.70;60.93
76106;BME280;64832;45.274;5.880;2022-11-10T03:40:45;99522.56;;;18.70;61.13
76106;BME280;64832;45.274;5.880;2022-11-10T03:43:11;99511.97;;;18.68;61.10
76106;BME280;64832;45.274;5.880;2022-11-10T03:45:36;99519.88;;;18.70;61.09
76106;BME280;64832;45.274;5.880;2022-11-10T03:48:02;99520.94;;;18.69;61.07
76106;BME280;64832;45.274;5.880;2022-11-10T03:50:27;99523.66;;;18.69;61.00
76106;BME280;64832;45.274;5.880;2022-11-10T03:52:52;99521.78;;;18.69;61.18
76106;BME280;64832;45.274;5.880;2022-11-10T03:55:18;99528.00;;;18.70;61.13
76106;BME280;64832;45.274;5.880;2022-11-10T03:57:44;99527.19;;;18.69;61.28
76106;BME280;64832;45.274;5.880;2022-11-10T04:00:11;99518.00;;;18.70;61.04
76106;BME280;64832;45.274;5.880;2022-11-10T04:02:37;99528.00;;;18.70;61.22
76106;BME280;64832;45.274;5.880;2022-11-10T04:05:04;99535.91;;;18.71;61.34
76106;BME280;64832;45.274;5.880;2022-11-10T04:07:48;99535.53;;;18.68;61.43
76106;BME280;64832;45.274;5.880;2022-11-10T04:10:38;99521.66;;;18.58;61.32
76106;BME280;64832;45.274;5.880;2022-11-10T04:13:03;99529.50;;;18.66;61.39
76106;BME280;64832;45.274;5.880;2022-11-10T04:15:47;99544.69;;;18.67;61.31
76106;BME280;64832;45.274;5.880;2022-11-10T04:18:13;99538.25;;;18.68;61.37
76106;BME280;64832;45.274;5.880;2022-11-10T04:20:48;99542.00;;;18.67;61.47
76106;BME280;64832;45.274;5.880;2022-11-10T04:23:14;99546.38;;;18.68;61.20
76106;BME280;64832;45.274;5.880;2022-11-10T04:26:00;99541.78;;;18.68;61.35
76106;BME280;64832;45.274;5.880;2022-11-10T04:28:45;99555.19;;;18.63;61.25
76106;BME280;64832;45.274;5.880;2022-11-10T04:31:11;99552.66;;;18.62;61.16
76106;BME280;64832;45.274;5.880;2022-11-10T04:33:38;99550.59;;;18.64;61.17
76106;BME280;64832;45.274;5.880;2022-11-10T04:36:04;99545.16;;;18.64;61.56
76106;BME280;64832;45.274;5.880;2022-11-10T04:38:30;99554.34;;;18.63;61.11
76106;BME280;64832;45.274;5.880;2022-11-10T04:40:55;99544.34;;;18.63;61.02
76106;BME280;64832;45.274;5.880;2022-11-10T04:43:21;99552.47;;;18.63;61.56
76106;BME280;64832;45.274;5.880;2022-11-10T04:45:46;99550.59;;;18.64;61.36
76106;BME280;64832;45.274;5.880;2022-11-10T04:48:12;99563.91;;;18.65;61.76
76106;BME280;64832;45.274;5.880;2022-11-10T04:50:37;99571.19;;;18.65;61.50
76106;BME280;64832;45.274;5.880;2022-11-10T04:53:03;99566.22;;;18.62;61.55
76106;BME280;64832;45.274;5.880;2022-11-10T04:55:28;99553.50;;;18.62;61.38
76106;BME280;64832;45.274;5.880;2022-11-10T04:57:53;99568.50;;;18.65;61.16
76106;BME280;64832;45.274;5.880;2022-11-10T05:00:19;99564.94;;;18.64;61.50
76106;BME280;64832;45.274;5.880;2022-11-10T05:02:44;99564.94;;;18.64;61.47
76106;BME280;64832;45.274;5.880;2022-11-10T05:05:10;99563.31;;;18.63;61.60
76106;BME280;64832;45.274;5.880;2022-11-10T05:07:36;99570.16;;;18.66;61.58
76106;BME280;64832;45.274;5.880;2022-11-10T05:10:02;99572.47;;;18.62;61.83
76106;BME280;64832;45.274;5.880;2022-11-10T05:12:27;99574.16;;;18.63;62.03
76106;BME280;64832;45.274;5.880;2022-11-10T05:14:53;99558.16;;;18.55;61.91
76106;BME280;64832;45.274;5.880;2022-11-10T05:17:18;99582.88;;;18.65;61.82
76106;BME280;64832;45.274;5.880;2022-11-10T05:19:43;99577.91;;;18.62;61.96
76106;BME280;64832;45.274;5.880;2022-11-10T05:22:11;99570.88;;;18.55;62.13
76106;BME280;64832;45.274;5.880;2022-11-10T05:24:36;99587.69;;;18.63;62.06
76106;BME280;64832;45.274;5.880;2022-11-10T05:27:02;99595.81;;;18.63;61.93
76106;BME280;64832;45.274;5.880;2022-11-10T05:29:27;99580.66;;;18.56;61.94
76106;BME280;64832;45.274;5.880;2022-11-10T05:31:53;99593.13;;;18.63;62.01
76106;BME280;64832;45.274;5.880;2022-11-10T05:34:18;99593.31;;;18.62;62.10
76106;BME280;64832;45.274;5.880;2022-11-10T05:36:43;99597.69;;;18.63;62.19
76106;BME280;64832;45.274;5.880;2022-11-10T05:39:09;99602.28;;;18.62;62.25
76106;BME280;64832;45.274;5.880;2022-11-10T05:41:34;99602.28;;;18.62;61.78
76106;BME280;64832;45.274;5.880;2022-11-10T05:43:59;99612.09;;;18.63;61.87
76106;BME280;64832;45.274;5.880;2022-11-10T05:46:25;99608.53;;;18.63;62.04
76106;BME280;64832;45.274;5.880;2022-11-10T05:48:50;99617.50;;;18.63;62.00
76106;BME280;64832;45.274;5.880;2022-11-10T05:51:16;99620.41;;;18.62;62.08
76106;BME280;64832;45.274;5.880;2022-11-10T05:53:41;99625.00;;;18.61;62.00
76106;BME280;64832;45.274;5.880;2022-11-10T05:56:06;99616.06;;;18.61;61.92
76106;BME280;64832;45.274;5.880;2022-11-10T05:58:32;99617.69;;;18.62;61.92
76106;BME280;64832;45.274;5.880;2022-11-10T06:00:57;99622.28;;;18.61;62.02
76106;BME280;64832;45.274;5.880;2022-11-10T06:03:23;99625.00;;;18.61;61.69
76106;BME280;64832;45.274;5.880;2022-11-10T06:05:48;99619.22;;;18.58;61.59
76106;BME280;64832;45.274;5.880;2022-11-10T06:08:14;99626.28;;;18.59;61.59
76106;BME280;64832;45.274;5.880;2022-11-10T06:10:40;99631.25;;;18.62;61.88
76106;BME280;64832;45.274;5.880;2022-11-10T06:13:05;99623.34;;;18.60;61.68
76106;BME280;64832;45.274;5.880;2022-11-10T06:15:31;99635.84;;;18.61;61.56
76106;BME280;64832;45.274;5.880;2022-11-10T06:17:57;99641.25;;;18.61;61.81
76106;BME280;64832;45.274;5.880;2022-11-10T06:20:22;99636.31;;;18.58;61.74
76106;BME280;64832;45.274;5.880;2022-11-10T06:25:30;99640.44;;;18.61;61.82
76106;BME280;64832;45.274;5.880;2022-11-10T06:27:56;99645.88;;;18.61;61.79
76106;BME280;64832;45.274;5.880;2022-11-10T06:30:22;99647.50;;;18.62;62.10
76106;BME280;64832;45.274;5.880;2022-11-10T06:32:47;99648.78;;;18.59;62.12
76106;BME280;64832;45.274;5.880;2022-11-10T06:35:13;99649.84;;;18.58;61.81
76106;BME280;64832;45.274;5.880;2022-11-10T06:37:38;99636.53;;;18.50;61.98
76106;BME280;64832;45.274;5.880;2022-11-10T06:40:05;99649.84;;;18.58;61.93
76106;BME280;64832;45.274;5.880;2022-11-10T06:42:31;99662.34;;;18.59;61.97
76106;BME280;64832;45.274;5.880;2022-11-10T06:44:57;99654.44;;;18.58;62.10
76106;BME280;64832;45.274;5.880;2022-11-10T06:47:22;99666.31;;;18.57;61.89
76106;BME280;64832;45.274;5.880;2022-11-10T06:49:47;99669.84;;;18.57;62.04
76106;BME280;64832;45.274;5.880;2022-11-10T06:52:13;99677.16;;;18.57;62.06
76106;BME280;64832;45.274;5.880;2022-11-10T06:54:38;99680.69;;;18.57;62.00
76106;BME280;64832;45.274;5.880;2022-11-10T06:57:03;99688.81;;;18.57;62.01
76106;BME280;64832;45.274;5.880;2022-11-10T06:59:29;99691.72;;;18.56;62.03
76106;BME280;64832;45.274;5.880;2022-11-10T07:01:54;99702.38;;;18.57;61.89
76106;BME280;64832;45.274;5.880;2022-11-10T07:04:20;99708.81;;;18.56;62.03
76106;BME280;64832;45.274;5.880;2022-11-10T07:06:45;99696.38;;;18.49;62.00
76106;BME280;64832;45.274;5.880;2022-11-10T07:09:12;99709.66;;;18.57;61.94
76106;BME280;64832;45.274;5.880;2022-11-10T07:11:37;99715.91;;;18.57;62.06
76106;BME280;64832;45.274;5.880;2022-11-10T07:14:03;99706.13;;;18.56;62.13
76106;BME280;64832;45.274;5.880;2022-11-10T07:16:28;99708.00;;;18.56;62.02
76106;BME280;64832;45.274;5.880;2022-11-10T07:18:53;99709.91;;;18.55;62.12
76106;BME280;64832;45.274;5.880;2022-11-10T07:21:19;99723.00;;;18.58;62.12
76106;BME280;64832;45.274;5.880;2022-11-10T07:23:44;99718.63;;;18.57;62.22
76106;BME280;64832;45.274;5.880;2022-11-10T07:26:11;99725.09;;;18.56;62.03
76106;BME280;64832;45.274;5.880;2022-11-10T07:28:36;99732.38;;;18.56;61.85
76106;BME280;64832;45.274;5.880;2022-11-10T07:31:02;99730.50;;;18.56;61.95
76106;BME280;64832;45.274;5.880;2022-11-10T07:33:28;99735.09;;;18.56;61.99
76106;BME280;64832;45.274;5.880;2022-11-10T07:35:57;99733.22;;;18.56;62.00
76106;BME280;64832;45.274;5.880;2022-11-10T07:38:23;99738.88;;;18.48;61.95
76106;BME280;64832;45.274;5.880;2022-11-10T07:40:50;99750.53;;;18.55;61.99
76106;BME280;64832;45.274;5.880;2022-11-10T07:43:16;99756.16;;;18.54;61.88
76106;BME280;64832;45.274;5.880;2022-11-10T07:45:41;99763.25;;;18.55;61.96
76106;BME280;64832;45.274;5.880;2022-11-10T07:48:06;99765.13;;;18.54;62.10
76106;BME280;64832;45.274;5.880;2022-11-10T07:50:33;99761.56;;;18.54;62.10
76106;BME280;64832;45.274;5.880;2022-11-10T07:53:13;99772.00;;;18.57;61.94
76106;BME280;64832;45.274;5.880;2022-11-10T07:55:41;99771.38;;;18.55;61.95
76106;BME280;64832;45.274;5.880;2022-11-10T07:58:07;99774.09;;;18.55;62.02
76106;BME280;64832;45.274;5.880;2022-11-10T08:00:33;99767.84;;;18.54;62.00
76106;BME280;64832;45.274;5.880;2022-11-10T08:03:06;99771.38;;;18.55;61.84
76106;BME280;64832;45.274;5.880;2022-11-10T08:05:32;99767.00;;;18.54;61.78
76106;BME280;64832;45.274;5.880;2022-11-10T08:07:58;99770.53;;;18.54;61.87
76106;BME280;64832;45.274;5.880;2022-11-10T08:10:25;99770.53;;;18.54;62.11
76106;BME280;64832;45.274;5.880;2022-11-10T08:12:56;99772.41;;;18.54;61.81
76106;BME280;64832;45.274;5.880;2022-11-10T08:15:23;99775.34;;;18.52;61.85
76106;BME280;64832;45.274;5.880;2022-11-10T08:17:48;99770.78;;;18.53;61.94
76106;BME280;64832;45.274;5.880;2022-11-10T08:20:14;99773.47;;;18.53;61.98
76106;BME280;64832;45.274;5.880;2022-11-10T08:22:40;99775.34;;;18.52;60.77
76106;BME280;64832;45.274;5.880;2022-11-10T08:25:06;99766.00;;;18.42;59.40
76106;BME280;64832;45.274;5.880;2022-11-10T08:27:31;99763.38;;;18.22;59.18
76106;BME280;64832;45.274;5.880;2022-11-10T08:29:57;99775.06;;;18.09;59.10
76106;BME280;64832;45.274;5.880;2022-11-10T08:32:22;99768.66;;;17.97;59.27
76106;BME280;64832;45.274;5.880;2022-11-10T08:34:48;99774.09;;;17.91;59.37
76106;BME280;64832;45.274;5.880;2022-11-10T08:37:13;99762.88;;;17.74;59.27
76106;BME280;64832;45.274;5.880;2022-11-10T08:39:38;99784.94;;;17.78;59.36
76106;BME280;64832;45.274;5.880;2022-11-10T08:42:05;99781.00;;;17.74;59.98
76106;BME280;64832;45.274;5.880;2022-11-10T08:44:30;99786.63;;;17.66;59.51
76106;BME280;64832;45.274;5.880;2022-11-10T08:46:56;99783.09;;;17.65;59.83
76106;BME280;64832;45.274;5.880;2022-11-10T08:49:21;99784.34;;;17.63;59.96
76106;BME280;64832;45.274;5.880;2022-11-10T08:51:46;99781.25;;;17.59;59.95
76106;BME280;64832;45.274;5.880;2022-11-10T08:54:12;99789.78;;;17.56;59.76
76106;BME280;64832;45.274;5.880;2022-11-10T08:56:37;99790.81;;;17.55;60.04
76106;BME280;64832;45.274;5.880;2022-11-10T08:59:03;99781.63;;;17.49;60.38
76106;BME280;64832;45.274;5.880;2022-11-10T09:01:28;99785.16;;;17.50;60.00
76106;BME280;64832;45.274;5.880;2022-11-10T09:03:53;99787.66;;;17.45;60.12
76106;BME280;64832;45.274;5.880;2022-11-10T09:06:19;99789.13;;;17.47;60.35
76106;BME280;64832;45.274;5.880;2022-11-10T09:08:44;99800.34;;;17.44;60.19
76106;BME280;64832;45.274;5.880;2022-11-10T09:11:09;99801.78;;;17.40;60.30
76106;BME280;64832;45.274;5.880;2022-11-10T09:13:35;99799.31;;;17.39;60.42
76106;BME280;64832;45.274;5.880;2022-11-10T09:16:01;99803.47;;;17.41;60.65
76106;BME280;64832;45.274;5.880;2022-11-10T09:18:27;99802.00;;;17.45;60.63
76106;BME280;64832;45.274;5.880;2022-11-10T09:20:53;99800.34;;;17.51;60.90
76106;BME280;64832;45.274;5.880;2022-11-10T09:23:19;99812.84;;;17.65;60.60
76106;BME280;64832;45.274;5.880;2022-11-10T09:25:49;99817.63;;;17.76;60.18
76106;BME280;64832;45.274;5.880;2022-11-10T09:28:15;99818.47;;;17.83;60.50
76106;BME280;64832;45.274;5.880;2022-11-10T09:30:41;99826.97;;;17.87;60.30
76106;BME280;64832;45.274;5.880;2022-11-10T09:33:09;99817.81;;;17.88;60.51
76106;BME280;64832;45.274;5.880;2022-11-10T09:35:34;99824.25;;;17.93;60.57
76106;BME280;64832;45.274;5.880;2022-11-10T09:38:00;99832.19;;;17.95;60.26
76106;BME280;64832;45.274;5.880;2022-11-10T09:40:54;99841.13;;;18.02;60.35
76106;BME280;64832;45.274;5.880;2022-11-10T09:43:45;99833.84;;;18.02;60.06
76106;BME280;64832;45.274;5.880;2022-11-10T09:46:17;99849.84;;;18.04;60.36
76106;BME280;64832;45.274;5.880;2022-11-10T09:48:49;99846.31;;;18.03;60.50
76106;BME280;64832;45.274;5.880;2022-11-10T09:51:22;99853.19;;;18.06;60.60
76106;BME280;64832;45.274;5.880;2022-11-10T09:53:58;99850.28;;;18.07;60.39
76106;BME280;64832;45.274;5.880;2022-11-10T09:56:36;99851.94;;;18.08;60.01
76106;BME280;64832;45.274;5.880;2022-11-10T09:59:24;99847.75;;;18.12;60.35
76106;BME280;64832;45.274;5.880;2022-11-10T10:01:59;99845.47;;;18.09;60.40
76106;BME280;64832;45.274;5.880;2022-11-10T10:07:09;99845.22;;;18.17;60.45
76106;BME280;64832;45.274;5.880;2022-11-10T10:25:29;99845.47;;;18.23;60.35
76106;BME280;64832;45.274;5.880;2022-11-10T10:28:12;99850.84;;;18.29;60.17
76106;BME280;64832;45.274;5.880;2022-11-10T10:30:40;99856.25;;;18.36;60.14
76106;BME280;64832;45.274;5.880;2022-11-10T10:33:24;99849.16;;;18.35;60.36
76106;BME280;64832;45.274;5.880;2022-11-10T10:35:49;99860.81;;;18.35;60.17
76106;BME280;64832;45.274;5.880;2022-11-10T10:40:48;99851.03;;;18.34;59.96
76106;BME280;64832;45.274;5.880;2022-11-10T10:43:14;99858.75;;;18.31;59.95
76106;BME280;64832;45.274;5.880;2022-11-10T10:45:39;99861.66;;;18.29;59.80
76106;BME280;64832;45.274;5.880;2022-11-10T10:48:28;99852.31;;;18.25;59.92
76106;BME280;64832;45.274;5.880;2022-11-10T10:50:53;99857.50;;;18.27;60.03
76106;BME280;64832;45.274;5.880;2022-11-10T10:53:23;99861.66;;;18.36;59.95
76106;BME280;64832;45.274;5.880;2022-11-10T10:56:06;99871.66;;;18.48;59.76
76106;BME280;64832;45.274;5.880;2022-11-10T10:58:53;99870.56;;;18.56;59.74
76106;BME280;64832;45.274;5.880;2022-11-10T11:01:25;99871.41;;;18.56;59.53
76106;BME280;64832;45.274;5.880;2022-11-10T11:03:53;99876.19;;;18.61;59.44
76106;BME280;64832;45.274;5.880;2022-11-10T11:06:22;99868.22;;;18.72;59.34
76106;BME280;64832;45.274;5.880;2022-11-10T11:11:35;99868.00;;;18.81;59.13
76106;BME280;64832;45.274;5.880;2022-11-10T11:14:14;99871.91;;;18.85;59.30
76106;BME280;64832;45.274;5.880;2022-11-10T11:19:17;99857.75;;;18.83;59.32
76106;BME280;64832;45.274;5.880;2022-11-10T11:22:09;99865.22;;;18.94;59.20
76106;BME280;64832;45.274;5.880;2022-11-10T11:27:38;99859.94;;;19.05;58.81
76106;BME280;64832;45.274;5.880;2022-11-10T11:30:27;99857.22;;;19.05;58.96
76106;BME280;64832;45.274;5.880;2022-11-10T11:33:13;99854.88;;;19.09;58.97
76106;BME280;64832;45.274;5.880;2022-11-10T11:39:04;99853.00;;;19.09;58.98
76106;BME280;64832;45.274;5.880;2022-11-10T11:41:40;99849.88;;;19.12;59.04
76106;BME280;64832;45.274;5.880;2022-11-10T11:55:53;99854.06;;;19.08;58.29
76106;BME280;64832;45.274;5.880;2022-11-10T12:09:50;99842.69;;;19.24;57.75
76106;BME280;64832;45.274;5.880;2022-11-10T12:17:55;99835.63;;;19.17;57.14
76106;BME280;64832;45.274;5.880;2022-11-10T12:29:29;99838.53;;;19.53;57.12
76106;BME280;64832;45.274;5.880;2022-11-10T12:32:16;99835.78;;;19.60;57.23
76106;BME280;64832;45.274;5.880;2022-11-10T12:34:52;99841.38;;;19.65;57.29
76106;BME280;64832;45.274;5.880;2022-11-10T12:37:26;99840.31;;;19.66;57.29
76106;BME280;64832;45.274;5.880;2022-11-10T12:40:04;99850.78;;;19.62;57.27
76106;BME280;64832;45.274;5.880;2022-11-10T12:42:37;99841.66;;;19.57;57.51
76106;BME280;64832;45.274;5.880;2022-11-10T12:45:16;99850.81;;;19.56;57.52
76106;BME280;64832;45.274;5.880;2022-11-10T12:47:44;99858.59;;;19.52;57.45
76106;BME280;64832;45.274;5.880;2022-11-10T12:53:25;99860.53;;;19.45;57.52
76106;BME280;64832;45.274;5.880;2022-11-10T13:01:46;99862.88;;;19.35;57.45
76106;BME280;64832;45.274;5.880;2022-11-10T13:04:14;99863.06;;;19.33;57.54
76106;BME280;64832;45.274;5.880;2022-11-10T13:06:57;99862.88;;;19.35;57.41
76106;BME280;64832;45.274;5.880;2022-11-10T13:09:33;99863.31;;;19.32;57.46
76106;BME280;64832;45.274;5.880;2022-11-10T13:12:20;99861.44;;;19.32;57.29
76106;BME280;64832;45.274;5.880;2022-11-10T13:14:47;99861.88;;;19.29;57.35
76106;BME280;64832;45.274;5.880;2022-11-10T13:19:51;99851.22;;;19.28;57.41
76106;BME280;64832;45.274;5.880;2022-11-10T13:28:00;99856.47;;;19.23;57.48
76106;BME280;64832;45.274;5.880;2022-11-10T13:30:38;99841.47;;;19.20;57.46
76106;BME280;64832;45.274;5.880;2022-11-10T13:33:31;99849.78;;;19.25;57.49
76106;BME280;64832;45.274;5.880;2022-11-10T13:35:57;99848.56;;;19.21;57.38
76106;BME280;64832;45.274;5.880;2022-11-10T13:38:37;99853.56;;;19.24;57.27
76106;BME280;64832;45.274;5.880;2022-11-10T13:43:52;99858.13;;;19.24;57.30
76106;BME280;64832;45.274;5.880;2022-11-10T13:46:21;99853.59;;;19.18;57.16
76106;BME280;64832;45.274;5.880;2022-11-10T13:52:03;99853.16;;;19.21;57.19
76106;BME280;64832;45.274;5.880;2022-11-10T13:57:33;99870.03;;;19.23;57.27
76106;BME280;64832;45.274;5.880;2022-11-10T14:00:05;99870.03;;;19.23;57.23
76106;BME280;64832;45.274;5.880;2022-11-10T14:08:13;99872.13;;;19.21;57.18
76106;BME280;64832;45.274;5.880;2022-11-10T14:10:55;99882.56;;;19.24;57.16
76106;BME280;64832;45.274;5.880;2022-11-10T14:13:36;99891.28;;;19.26;56.90
76106;BME280;64832;45.274;5.880;2022-11-10T14:16:14;99895.88;;;19.25;56.93
76106;BME280;64832;45.274;5.880;2022-11-10T14:18:47;99906.97;;;19.24;57.06
76106;BME280;64832;45.274;5.880;2022-11-10T14:21:22;99895.31;;;19.17;57.04
76106;BME280;64832;45.274;5.880;2022-11-10T14:24:18;99922.19;;;19.25;57.20
76106;BME280;64832;45.274;5.880;2022-11-10T14:26:52;99924.28;;;19.23;57.04
76106;BME280;64832;45.274;5.880;2022-11-10T14:29:33;99922.63;;;19.22;57.12
76106;BME280;64832;45.274;5.880;2022-11-10T14:32:02;99934.72;;;19.19;57.07
76106;BME280;64832;45.274;5.880;2022-11-10T14:34:29;99933.91;;;19.19;57.13
76106;BME280;64832;45.274;5.880;2022-11-10T14:36:57;99937.91;;;19.16;57.09
76106;BME280;64832;45.274;5.880;2022-11-10T14:39:33;99940.38;;;19.18;57.04
76106;BME280;64832;45.274;5.880;2022-11-10T14:42:03;99944.97;;;19.17;57.04
76106;BME280;64832;45.274;5.880;2022-11-10T14:44:31;99953.34;;;19.16;57.10
76106;BME280;64832;45.274;5.880;2022-11-10T14:47:29;99943.31;;;19.16;57.15
76106;BME280;64832;45.274;5.880;2022-11-10T14:50:25;99957.91;;;19.15;57.18
76106;BME280;64832;45.274;5.880;2022-11-10T14:52:59;99957.50;;;19.12;57.11
76106;BME280;64832;45.274;5.880;2022-11-10T14:55:28;99946.91;;;19.04;57.07